Sioux Lookout Airport
CYXL : rendu visible

Aérodrome :











RETROUVEZ-NOUS SUR...

 
LOGIN :

S'inscrire | Disclaimer

   EN    FR    IT 

 









Légende :    VFR   VFR Marginal   IFR   IFR Intensif   IFR Très Intensif
Visi : 
Plafond : 
>= 8 km
>= 3000ft
5 à 8 km
1000 à 3000 ft
1500m à 5 km
500 à 1000 ft
800 à 1500m
200 à 500 ft
< 800m
< 200 ft
Symboles :   Orages  Brouillard  Fortes neiges  Fortes précipitations  Vent > 20 kt






- Altitude de l'aérodrome : 1258 ft
- Code IATA : YXL


CYXL - Sioux Lookout

DERNIER METAR :
  • 191500Z 17003KT 10SM -SN OVC004 M01/M02 A2969 RMK SF8 CIG RAG SLP076

METARs EXPIRÉS :
  • 191400Z 15005KT 10SM -SN BKN005 OVC025 M02/M02 A2967 RMK SF7SC1 SLP072
  • 191336Z 16003KT 6SM -SN BKN005 OVC032 M02/M02 A2967 RMK SN2SF4SC2 VIS N-NE 2 SLP070
  • 191300Z 17005KT 3SM -SN SCT006 BKN018 OVC030 M02/M02 A2966 RMK SN2SF2SC1SC3 SLP067
  • 191241Z 15004KT 3SM -SN SCT006 OVC026 M02/M02 A2966 RMK SF4SC4 SLP066

TAF TAF CYXL
Valide du 19 à 14h jusqu'au 20 à 02h UTC


191338Z 1914/2002 17005KT 4SM -SN -FZDZ BR OVC006
TEMPO 1914/1917 P6SM NSW OVC010
FM191700 19006KT P6SM OVC010
TEMPO 1917/1923 5SM -SN -DZ BR BKN006 OVC010
FM192300 21005KT 5SM -DZ BR OVC006
PROB30 1923/2002 1SM -FZDZ BR OVC004 RMK NXT FCST BY 192000Z



MET'MAP, la Météo Aéronautique d'un coup d'oeil ! - Copyright ORBIFLY Décembre 2007 - Disclaimer

ORBIFLY MET'MAP TEAM :

Programmation & Développement : Alexandra Zaïnal
Conception & Développement : Baudouin d'Aumeries
Co-Programmation & Développement : Marc-Olivier Méhu
Soutien technique & logistique : Manuel Goepfert

Contact : metmap@orbifly.com




SOURCES & CREDITS :

   NOAA       Earth
Advisory